ENAT Airport Information

Runway Information
Runway 11 Length 7165 ft width 147 ft Elevation 8 ft Threshold 674 ft Heading 121
Runway 29 Length 7165 ft Width 147 ft Elevation 7 ft Threshold 418 ft Heading 301
Airport Frequencies
Type ATIS Name ATIS Frequency 118.175 MHZ
Type TWR Name TWR Frequency 118.1 MHZ
Airport Navaids
Type NDB Name Alta Frequency 358 KHZ
Type VOR-DME Name Alta Frequency 117400 KHZ
Airport Weather Information & NOTAM
ADDS - METARS form results

(0605 UTC 29 March 2023)
Data provider http://aviationweather.gov/metar/data/
 
METAR text: ENAT 290550Z 19004KT 9999 FEW039 SCT059 M13/M17 Q1022 RMK WIND 700FT 17003KT
Conditions at: ENAT (ALTA AIRPORT , NO) observed 0550 UTC 29 March 2023
Temperature: -13.0°C ( 9°F)
Dewpoint: -17.0°C ( 1°F) [RH = 72%]
Pressure (altimeter): 30.18 inches Hg (1022.0 mb)
Winds: from the S (190 degrees) at 5 MPH (4 knots; 2.1 m/s)
Visibility: 6 or more miles (10+ km)
Ceiling: at least 12,000 feet AGL
Clouds: few clouds at 3900 feet AGL
scattered clouds at 5900 feet AGL
Weather: no significant weather observed at this time

METAR text: ENAT 290520Z 21005KT CAVOK M13/M17 Q1022 RMK WIND 700FT 19005KT
Conditions at: ENAT (ALTA AIRPORT , NO) observed 0520 UTC 29 March 2023
Temperature: -13.0°C ( 9°F)
Dewpoint: -17.0°C ( 1°F) [RH = 72%]
Pressure (altimeter): 30.18 inches Hg (1022.0 mb)
Winds: from the SSW (210 degrees) at 6 MPH (5 knots; 2.6 m/s)
Visibility: 6 or more miles (10+ km)
Ceiling: ceiling and visibility are OK
Clouds: unknown
Weather: no significant weather observed at this time

Forecast for: ENAT (ALTA AIRPORT , NO)
Text: TAF ENAT 290500Z 2906/2915 20005KT CAVOK
Forecast period: 0600 to 1500 UTC 29 March 2023
Forecast type: FROM: standard forecast or significant change
Winds: from the SSW (200 degrees) at 6 MPH (5 knots; 2.6 m/s)
Visibility: 6 or more miles (10+ km)
Ceiling: unknown
Clouds: missing
Weather: NSW  (no significant weather)